sensor_id;sensor_type;location;lat;lon;timestamp;pressure;altitude;pressure_sealevel;temperature;humidity
35443;BME280;21561;55.654;37.592;2022-08-18T00:01:44;99600.59;;;20.58;61.48
35443;BME280;21561;55.654;37.592;2022-08-18T00:04:14;99600.59;;;20.58;61.47
35443;BME280;21561;55.654;37.592;2022-08-18T00:07:01;99603.16;;;20.59;60.86
35443;BME280;21561;55.654;37.592;2022-08-18T00:09:28;99607.47;;;20.62;60.99
35443;BME280;21561;55.654;37.592;2022-08-18T00:12:01;99610.88;;;20.64;60.73
35443;BME280;21561;55.654;37.592;2022-08-18T00:14:28;99611.03;;;20.61;61.02
35443;BME280;21561;55.654;37.592;2022-08-18T00:16:55;99606.63;;;20.60;61.03
35443;BME280;21561;55.654;37.592;2022-08-18T00:19:23;99615.41;;;20.60;61.08
35443;BME280;21561;55.654;37.592;2022-08-18T00:22:13;99617.06;;;20.63;60.65
35443;BME280;21561;55.654;37.592;2022-08-18T00:24:46;99622.41;;;20.62;60.57
35443;BME280;21561;55.654;37.592;2022-08-18T00:27:29;99621.09;;;20.70;60.17
35443;BME280;21561;55.654;37.592;2022-08-18T00:30:00;99621.88;;;20.72;60.16
35443;BME280;21561;55.654;37.592;2022-08-18T00:32:37;99615.09;;;20.86;60.06
35443;BME280;21561;55.654;37.592;2022-08-18T00:35:06;99611.50;;;21.04;59.60
35443;BME280;21561;55.654;37.592;2022-08-18T00:37:34;99608.09;;;21.20;58.50
35443;BME280;21561;55.654;37.592;2022-08-18T00:40:02;99611.72;;;21.34;58.54
35443;BME280;21561;55.654;37.592;2022-08-18T00:42:30;99607.75;;;21.43;57.62
35443;BME280;21561;55.654;37.592;2022-08-18T00:45:01;99610.25;;;21.46;57.67
35443;BME280;21561;55.654;37.592;2022-08-18T00:47:31;99611.72;;;21.52;57.24
35443;BME280;21561;55.654;37.592;2022-08-18T00:50:32;99612.19;;;21.76;56.97
35443;BME280;21561;55.654;37.592;2022-08-18T00:53:14;99624.63;;;21.74;56.95
35443;BME280;21561;55.654;37.592;2022-08-18T00:55:44;99630.56;;;21.62;57.74
35443;BME280;21561;55.654;37.592;2022-08-18T00:58:32;99630.06;;;21.71;57.45
35443;BME280;21561;55.654;37.592;2022-08-18T01:01:05;99626.13;;;21.62;57.84
35443;BME280;21561;55.654;37.592;2022-08-18T01:03:34;99628.78;;;21.45;58.63
35443;BME280;21561;55.654;37.592;2022-08-18T01:06:15;99619.22;;;21.60;58.40
35443;BME280;21561;55.654;37.592;2022-08-18T01:08:43;99619.47;;;21.55;58.17
35443;BME280;21561;55.654;37.592;2022-08-18T01:11:12;99614.03;;;21.58;57.61
35443;BME280;21561;55.654;37.592;2022-08-18T01:13:40;99617.84;;;21.52;57.99
35443;BME280;21561;55.654;37.592;2022-08-18T01:16:07;99619.22;;;21.42;58.79
35443;BME280;21561;55.654;37.592;2022-08-18T01:18:53;99619.72;;;21.33;59.56
35443;BME280;21561;55.654;37.592;2022-08-18T01:21:46;99617.00;;;21.34;59.58
35443;BME280;21561;55.654;37.592;2022-08-18T01:24:29;99609.16;;;21.33;59.76
35443;BME280;21561;55.654;37.592;2022-08-18T01:27:16;99613.38;;;21.20;60.17
35443;BME280;21561;55.654;37.592;2022-08-18T01:29:45;99615.25;;;21.17;60.26
35443;BME280;21561;55.654;37.592;2022-08-18T01:32:21;99615.53;;;21.29;59.73
35443;BME280;21561;55.654;37.592;2022-08-18T01:34:50;99623.38;;;21.13;60.43
35443;BME280;21561;55.654;37.592;2022-08-18T01:37:20;99620.44;;;21.02;60.68
35443;BME280;21561;55.654;37.592;2022-08-18T01:39:47;99615.59;;;20.92;61.14
35443;BME280;21561;55.654;37.592;2022-08-18T01:42:37;99623.75;;;20.88;61.21
35443;BME280;21561;55.654;37.592;2022-08-18T01:45:05;99630.13;;;20.84;61.13
35443;BME280;21561;55.654;37.592;2022-08-18T01:47:34;99630.41;;;20.77;61.45
35443;BME280;21561;55.654;37.592;2022-08-18T01:50:14;99624.31;;;20.77;61.67
35443;BME280;21561;55.654;37.592;2022-08-18T01:52:41;99626.25;;;20.73;61.13
35443;BME280;21561;55.654;37.592;2022-08-18T01:55:08;99624.50;;;20.72;61.36
35443;BME280;21561;55.654;37.592;2022-08-18T01:57:38;99624.22;;;20.78;61.24
35443;BME280;21561;55.654;37.592;2022-08-18T02:00:13;99626.34;;;20.89;60.98
35443;BME280;21561;55.654;37.592;2022-08-18T02:02:41;99632.78;;;20.84;61.25
35443;BME280;21561;55.654;37.592;2022-08-18T02:05:15;99637.59;;;20.93;61.16
35443;BME280;21561;55.654;37.592;2022-08-18T02:07:44;99635.69;;;20.77;61.28
35443;BME280;21561;55.654;37.592;2022-08-18T02:10:11;99638.97;;;20.83;60.99
35443;BME280;21561;55.654;37.592;2022-08-18T02:12:42;99638.97;;;20.83;60.73
35443;BME280;21561;55.654;37.592;2022-08-18T02:15:10;99641.75;;;20.79;61.35
35443;BME280;21561;55.654;37.592;2022-08-18T02:17:43;99645.78;;;20.87;60.88
35443;BME280;21561;55.654;37.592;2022-08-18T02:20:14;99650.28;;;20.85;60.82
35443;BME280;21561;55.654;37.592;2022-08-18T02:22:41;99654.22;;;20.76;60.94
35443;BME280;21561;55.654;37.592;2022-08-18T02:25:09;99648.19;;;20.74;61.00
35443;BME280;21561;55.654;37.592;2022-08-18T02:27:36;99655.31;;;20.72;60.98
35443;BME280;21561;55.654;37.592;2022-08-18T02:30:07;99663.00;;;20.76;61.38
35443;BME280;21561;55.654;37.592;2022-08-18T02:32:34;99651.19;;;20.66;60.89
35443;BME280;21561;55.654;37.592;2022-08-18T02:35:02;99658.31;;;20.64;61.50
35443;BME280;21561;55.654;37.592;2022-08-18T02:37:31;99651.19;;;20.66;61.22
35443;BME280;21561;55.654;37.592;2022-08-18T02:39:58;99655.03;;;20.59;61.66
35443;BME280;21561;55.654;37.592;2022-08-18T02:42:27;99661.75;;;20.66;61.82
35443;BME280;21561;55.654;37.592;2022-08-18T02:44:54;99652.03;;;20.67;61.31
35443;BME280;21561;55.654;37.592;2022-08-18T02:47:21;99663.44;;;20.67;61.78
35443;BME280;21561;55.654;37.592;2022-08-18T02:49:48;99666.31;;;20.63;61.21
35443;BME280;21561;55.654;37.592;2022-08-18T02:52:17;99665.28;;;20.65;61.63
35443;BME280;21561;55.654;37.592;2022-08-18T02:54:44;99671.13;;;20.72;61.61
35443;BME280;21561;55.654;37.592;2022-08-18T02:57:11;99670.50;;;20.48;62.13
35443;BME280;21561;55.654;37.592;2022-08-18T02:59:39;99670.91;;;20.38;62.36
35443;BME280;21561;55.654;37.592;2022-08-18T03:02:07;99665.03;;;20.33;63.33
35443;BME280;21561;55.654;37.592;2022-08-18T03:04:35;99666.03;;;20.31;62.91
35443;BME280;21561;55.654;37.592;2022-08-18T03:07:04;99665.09;;;20.32;63.30
35443;BME280;21561;55.654;37.592;2022-08-18T03:09:33;99668.72;;;20.29;62.92
35443;BME280;21561;55.654;37.592;2022-08-18T03:12:01;99662.75;;;20.26;63.12
35443;BME280;21561;55.654;37.592;2022-08-18T03:14:28;99663.88;;;20.20;63.47
35443;BME280;21561;55.654;37.592;2022-08-18T03:16:56;99669.47;;;20.14;64.09
35443;BME280;21561;55.654;37.592;2022-08-18T03:19:25;99666.81;;;20.14;64.22
35443;BME280;21561;55.654;37.592;2022-08-18T03:21:56;99665.75;;;20.18;63.78
35443;BME280;21561;55.654;37.592;2022-08-18T03:24:29;99660.47;;;20.18;63.74
35443;BME280;21561;55.654;37.592;2022-08-18T03:26:58;99660.47;;;20.18;63.69
35443;BME280;21561;55.654;37.592;2022-08-18T03:29:26;99656.34;;;20.12;63.86
35443;BME280;21561;55.654;37.592;2022-08-18T03:32:00;99668.81;;;20.09;64.47
35443;BME280;21561;55.654;37.592;2022-08-18T03:34:28;99669.72;;;20.08;64.49
35443;BME280;21561;55.654;37.592;2022-08-18T03:36:55;99659.19;;;20.08;64.77
35443;BME280;21561;55.654;37.592;2022-08-18T03:39:22;99665.34;;;20.08;64.71
35443;BME280;21561;55.654;37.592;2022-08-18T03:41:52;99661.81;;;20.08;64.75
35443;BME280;21561;55.654;37.592;2022-08-18T03:44:34;99660.25;;;20.03;64.90
35443;BME280;21561;55.654;37.592;2022-08-18T03:47:08;99654.78;;;20.08;65.41
35443;BME280;21561;55.654;37.592;2022-08-18T03:49:36;99658.69;;;19.99;64.91
35443;BME280;21561;55.654;37.592;2022-08-18T03:52:07;99659.34;;;20.05;65.36
35443;BME280;21561;55.654;37.592;2022-08-18T03:54:34;99663.81;;;20.02;65.46
35443;BME280;21561;55.654;37.592;2022-08-18T03:57:07;99661.81;;;20.08;65.21
35443;BME280;21561;55.654;37.592;2022-08-18T03:59:34;99659.19;;;20.08;64.94
35443;BME280;21561;55.654;37.592;2022-08-18T04:02:03;99662.19;;;20.19;65.25
35443;BME280;21561;55.654;37.592;2022-08-18T04:04:30;99662.34;;;20.16;64.62
35443;BME280;21561;55.654;37.592;2022-08-18T04:07:02;99665.75;;;20.18;64.61
35443;BME280;21561;55.654;37.592;2022-08-18T04:09:32;99670.38;;;20.13;64.62
35443;BME280;21561;55.654;37.592;2022-08-18T04:12:04;99662.34;;;20.16;65.05
35443;BME280;21561;55.654;37.592;2022-08-18T04:14:42;99665.75;;;20.18;64.67
35443;BME280;21561;55.654;37.592;2022-08-18T04:17:12;99670.59;;;20.27;64.85
35443;BME280;21561;55.654;37.592;2022-08-18T04:19:39;99663.25;;;20.34;64.78
35443;BME280;21561;55.654;37.592;2022-08-18T04:22:05;99656.06;;;20.37;63.94
35443;BME280;21561;55.654;37.592;2022-08-18T04:24:33;99659.31;;;20.43;64.21
35443;BME280;21561;55.654;37.592;2022-08-18T04:27:02;99662.59;;;20.48;64.36
35443;BME280;21561;55.654;37.592;2022-08-18T04:29:30;99660.88;;;20.47;63.78
35443;BME280;21561;55.654;37.592;2022-08-18T04:31:59;99665.25;;;20.48;64.27
35443;BME280;21561;55.654;37.592;2022-08-18T04:34:26;99666.00;;;20.50;63.95
35443;BME280;21561;55.654;37.592;2022-08-18T04:36:53;99669.28;;;20.55;63.79
35443;BME280;21561;55.654;37.592;2022-08-18T04:39:21;99670.13;;;20.55;63.42
35443;BME280;21561;55.654;37.592;2022-08-18T04:41:49;99670.97;;;20.56;63.65
35443;BME280;21561;55.654;37.592;2022-08-18T04:44:17;99677.97;;;20.57;63.59
35443;BME280;21561;55.654;37.592;2022-08-18T04:46:47;99682.19;;;20.61;63.33
35443;BME280;21561;55.654;37.592;2022-08-18T04:49:16;99686.44;;;20.64;62.83
35443;BME280;21561;55.654;37.592;2022-08-18T04:51:46;99681.75;;;20.70;62.43
35443;BME280;21561;55.654;37.592;2022-08-18T04:54:52;99677.88;;;20.77;62.49
35443;BME280;21561;55.654;37.592;2022-08-18T04:57:20;99674.16;;;20.82;62.28
35443;BME280;21561;55.654;37.592;2022-08-18T04:59:49;99679.94;;;20.90;61.82
35443;BME280;21561;55.654;37.592;2022-08-18T05:02:19;99680.41;;;20.98;61.80
35443;BME280;21561;55.654;37.592;2022-08-18T05:04:46;99674.81;;;21.04;61.68
35443;BME280;21561;55.654;37.592;2022-08-18T05:07:18;99667.38;;;21.12;61.55
35443;BME280;21561;55.654;37.592;2022-08-18T05:09:45;99678.56;;;21.17;61.28
35443;BME280;21561;55.654;37.592;2022-08-18T05:12:14;99676.63;;;21.21;61.37
35443;BME280;21561;55.654;37.592;2022-08-18T05:14:43;99683.19;;;21.30;60.65
35443;BME280;21561;55.654;37.592;2022-08-18T05:17:12;99676.59;;;21.39;60.63
35443;BME280;21561;55.654;37.592;2022-08-18T05:19:40;99677.09;;;21.47;60.58
35443;BME280;21561;55.654;37.592;2022-08-18T05:22:11;99682.13;;;21.51;60.49
35443;BME280;21561;55.654;37.592;2022-08-18T05:24:51;99673.75;;;21.61;59.81
35443;BME280;21561;55.654;37.592;2022-08-18T05:27:18;99670.78;;;21.67;59.65
35443;BME280;21561;55.654;37.592;2022-08-18T05:29:46;99674.03;;;21.72;59.21
35443;BME280;21561;55.654;37.592;2022-08-18T05:32:17;99677.09;;;21.80;58.90
35443;BME280;21561;55.654;37.592;2022-08-18T05:35:21;99679.69;;;21.98;58.89
35443;BME280;21561;55.654;37.592;2022-08-18T05:38:44;99677.31;;;22.09;58.35
35443;BME280;21561;55.654;37.592;2022-08-18T05:41:41;99682.97;;;22.19;58.06
35443;BME280;21561;55.654;37.592;2022-08-18T05:44:13;99681.25;;;22.18;58.21
35443;BME280;21561;55.654;37.592;2022-08-18T05:46:51;99669.38;;;22.26;57.73
35443;BME280;21561;55.654;37.592;2022-08-18T05:49:20;99670.28;;;22.25;57.78
35443;BME280;21561;55.654;37.592;2022-08-18T05:52:53;99681.91;;;22.39;57.96
35443;BME280;21561;55.654;37.592;2022-08-18T05:55:03;99682.66;;;22.41;57.95
35443;BME280;21561;55.654;37.592;2022-08-18T05:57:54;99678.75;;;22.48;57.19
35443;BME280;21561;55.654;37.592;2022-08-18T06:00:23;99685.56;;;22.52;57.09
35443;BME280;21561;55.654;37.592;2022-08-18T06:05:30;99691.88;;;22.65;56.96
35443;BME280;21561;55.654;37.592;2022-08-18T06:08:05;99686.44;;;22.68;57.29
35443;BME280;21561;55.654;37.592;2022-08-18T06:10:35;99689.84;;;22.71;56.89
35443;BME280;21561;55.654;37.592;2022-08-18T06:13:03;99690.44;;;22.76;56.01
35443;BME280;21561;55.654;37.592;2022-08-18T06:15:50;99690.28;;;22.93;55.86
35443;BME280;21561;55.654;37.592;2022-08-18T06:21:27;99689.97;;;22.99;55.08
35443;BME280;21561;55.654;37.592;2022-08-18T06:35:00;99685.63;;;23.29;53.71
35443;BME280;21561;55.654;37.592;2022-08-18T06:37:44;99695.50;;;23.41;53.82
35443;BME280;21561;55.654;37.592;2022-08-18T06:40:32;99698.41;;;23.36;54.23
35443;BME280;21561;55.654;37.592;2022-08-18T06:42:59;99698.81;;;23.44;53.82
35443;BME280;21561;55.654;37.592;2022-08-18T06:45:33;99701.75;;;23.54;53.30
35443;BME280;21561;55.654;37.592;2022-08-18T06:48:13;99708.94;;;23.52;53.37
35443;BME280;21561;55.654;37.592;2022-08-18T06:50:51;99714.91;;;23.56;53.56
35443;BME280;21561;55.654;37.592;2022-08-18T06:53:18;99710.56;;;23.55;52.93
35443;BME280;21561;55.654;37.592;2022-08-18T06:55:54;99706.78;;;23.59;52.88
35443;BME280;21561;55.654;37.592;2022-08-18T06:58:26;99714.91;;;23.70;52.74
35443;BME280;21561;55.654;37.592;2022-08-18T07:00:59;99703.00;;;23.77;53.00
35443;BME280;21561;55.654;37.592;2022-08-18T07:06:28;99699.81;;;24.01;51.68
35443;BME280;21561;55.654;37.592;2022-08-18T07:09:22;99699.06;;;24.13;51.49
35443;BME280;21561;55.654;37.592;2022-08-18T07:12:23;99682.00;;;24.32;50.32
35443;BME280;21561;55.654;37.592;2022-08-18T07:15:02;99662.84;;;24.41;48.60
35443;BME280;21561;55.654;37.592;2022-08-18T07:17:33;99651.66;;;24.50;47.32
35443;BME280;21561;55.654;37.592;2022-08-18T07:20:23;99644.41;;;24.67;46.97
35443;BME280;21561;55.654;37.592;2022-08-18T07:23:02;99622.25;;;24.68;45.66
35443;BME280;21561;55.654;37.592;2022-08-18T07:25:40;99612.06;;;24.74;45.22
35443;BME280;21561;55.654;37.592;2022-08-18T07:31:10;99602.66;;;24.83;44.93
35443;BME280;21561;55.654;37.592;2022-08-18T07:33:49;99595.84;;;24.79;44.58
35443;BME280;21561;55.654;37.592;2022-08-18T07:36:18;99610.94;;;24.79;44.50
35443;BME280;21561;55.654;37.592;2022-08-18T07:38:52;99619.81;;;24.77;44.61
35443;BME280;21561;55.654;37.592;2022-08-18T07:41:33;99630.91;;;24.84;44.79
35443;BME280;21561;55.654;37.592;2022-08-18T07:44:25;99637.59;;;24.90;44.71
35443;BME280;21561;55.654;37.592;2022-08-18T07:47:03;99628.56;;;24.92;44.95
35443;BME280;21561;55.654;37.592;2022-08-18T07:49:33;99634.75;;;24.93;44.92
35443;BME280;21561;55.654;37.592;2022-08-18T07:52:07;99636.22;;;24.97;44.70
35443;BME280;21561;55.654;37.592;2022-08-18T08:01:09;99615.44;;;25.17;43.85
35443;BME280;21561;55.654;37.592;2022-08-18T08:07:11;99631.22;;;25.32;44.34
35443;BME280;21561;55.654;37.592;2022-08-18T08:12:47;99605.28;;;25.49;43.80
35443;BME280;21561;55.654;37.592;2022-08-18T08:18:17;99596.78;;;25.57;42.89
35443;BME280;21561;55.654;37.592;2022-08-18T08:20:53;99598.88;;;25.64;43.23
35443;BME280;21561;55.654;37.592;2022-08-18T08:23:31;99580.59;;;25.72;42.72
35443;BME280;21561;55.654;37.592;2022-08-18T08:32:00;99580.97;;;25.92;42.63
35443;BME280;21561;55.654;37.592;2022-08-18T08:34:47;99583.94;;;26.00;42.39
35443;BME280;21561;55.654;37.592;2022-08-18T08:40:23;99554.00;;;26.22;42.05
35443;BME280;21561;55.654;37.592;2022-08-18T08:42:57;99552.91;;;26.25;41.63
35443;BME280;21561;55.654;37.592;2022-08-18T08:45:38;99548.50;;;26.37;41.85
35443;BME280;21561;55.654;37.592;2022-08-18T08:48:20;99527.16;;;26.50;40.75
35443;BME280;21561;55.654;37.592;2022-08-18T08:53:52;99450.09;;;26.72;39.03
35443;BME280;21561;55.654;37.592;2022-08-18T08:56:27;99437.28;;;26.89;38.81
35443;BME280;21561;55.654;37.592;2022-08-18T08:59:01;99393.22;;;27.07;37.62
35443;BME280;21561;55.654;37.592;2022-08-18T09:09:57;99319.47;;;27.63;36.33
35443;BME280;21561;55.654;37.592;2022-08-18T09:23:33;99322.91;;;27.74;36.30
35443;BME280;21561;55.654;37.592;2022-08-18T09:26:37;99308.22;;;27.91;36.28
35443;BME280;21561;55.654;37.592;2022-08-18T09:32:29;99258.19;;;28.05;35.00
35443;BME280;21561;55.654;37.592;2022-08-18T09:35:41;99260.72;;;28.06;34.89
35443;BME280;21561;55.654;37.592;2022-08-18T09:38:14;99254.75;;;28.14;34.78
35443;BME280;21561;55.654;37.592;2022-08-18T09:41:09;99257.13;;;28.17;34.83
35443;BME280;21561;55.654;37.592;2022-08-18T09:44:10;99247.94;;;28.41;34.75
35443;BME280;21561;55.654;37.592;2022-08-18T09:46:54;99226.25;;;28.55;33.97
35443;BME280;21561;55.654;37.592;2022-08-18T09:54:51;99171.38;;;29.01;32.90
35443;BME280;21561;55.654;37.592;2022-08-18T09:57:25;99156.91;;;29.13;32.89
35443;BME280;21561;55.654;37.592;2022-08-18T10:13:53;99105.00;;;29.45;32.57
35443;BME280;21561;55.654;37.592;2022-08-18T10:23:02;99069.34;;;30.66;29.68
35443;BME280;21561;55.654;37.592;2022-08-18T10:25:50;98959.66;;;31.85;28.57
35443;BME280;21561;55.654;37.592;2022-08-18T10:28:51;98858.03;;;33.12;27.59
35443;BME280;21561;55.654;37.592;2022-08-18T10:31:18;98786.03;;;34.15;25.40
35443;BME280;21561;55.654;37.592;2022-08-18T10:33:57;98808.97;;;34.78;27.35
35443;BME280;21561;55.654;37.592;2022-08-18T10:39:44;98616.94;;;36.33;23.72
35443;BME280;21561;55.654;37.592;2022-08-18T10:42:26;98544.69;;;36.61;21.46
35443;BME280;21561;55.654;37.592;2022-08-18T10:47:32;98482.28;;;37.36;19.53
35443;BME280;21561;55.654;37.592;2022-08-18T10:50:04;98428.47;;;37.73;19.03
35443;BME280;21561;55.654;37.592;2022-08-18T10:53:06;98404.44;;;38.22;19.52
35443;BME280;21561;55.654;37.592;2022-08-18T10:56:00;98398.41;;;38.45;18.13
35443;BME280;21561;55.654;37.592;2022-08-18T11:01:33;98365.41;;;39.17;17.67
35443;BME280;21561;55.654;37.592;2022-08-18T11:07:13;98229.47;;;39.56;16.45
35443;BME280;21561;55.654;37.592;2022-08-18T11:09:46;98213.63;;;39.53;15.41
35443;BME280;21561;55.654;37.592;2022-08-18T11:12:50;98187.09;;;39.90;15.28
35443;BME280;21561;55.654;37.592;2022-08-18T11:15:33;98171.75;;;39.84;15.20
35443;BME280;21561;55.654;37.592;2022-08-18T11:20:35;98167.94;;;39.38;15.26
35443;BME280;21561;55.654;37.592;2022-08-18T11:23:12;98148.03;;;39.67;15.03
35443;BME280;21561;55.654;37.592;2022-08-18T11:25:40;98157.34;;;39.48;14.96
35443;BME280;21561;55.654;37.592;2022-08-18T11:28:18;98167.41;;;39.59;14.98
35443;BME280;21561;55.654;37.592;2022-08-18T11:30:49;98185.81;;;39.81;15.69
35443;BME280;21561;55.654;37.592;2022-08-18T11:33:19;98195.25;;;39.90;15.31
35443;BME280;21561;55.654;37.592;2022-08-18T11:35:54;98203.88;;;40.22;15.41
35443;BME280;21561;55.654;37.592;2022-08-18T11:38:27;98183.91;;;40.28;15.46
35443;BME280;21561;55.654;37.592;2022-08-18T11:41:16;98174.47;;;40.83;15.18
35443;BME280;21561;55.654;37.592;2022-08-18T11:43:45;98167.72;;;40.74;14.90
35443;BME280;21561;55.654;37.592;2022-08-18T11:48:54;98138.53;;;40.81;14.25
35443;BME280;21561;55.654;37.592;2022-08-18T11:51:27;98135.53;;;41.12;13.90
35443;BME280;21561;55.654;37.592;2022-08-18T11:56:29;98078.81;;;40.58;13.11
35443;BME280;21561;55.654;37.592;2022-08-18T11:59:29;98072.19;;;40.82;13.16
35443;BME280;21561;55.654;37.592;2022-08-18T12:02:18;98037.91;;;40.98;12.32
35443;BME280;21561;55.654;37.592;2022-08-18T12:04:59;98039.47;;;41.11;13.29
35443;BME280;21561;55.654;37.592;2022-08-18T12:07:48;98020.03;;;40.86;12.65
35443;BME280;21561;55.654;37.592;2022-08-18T12:10:36;98019.94;;;41.14;12.41
35443;BME280;21561;55.654;37.592;2022-08-18T12:13:03;97990.50;;;41.11;11.96
35443;BME280;21561;55.654;37.592;2022-08-18T12:15:33;97977.66;;;41.24;11.99
35443;BME280;21561;55.654;37.592;2022-08-18T12:18:14;97971.72;;;41.27;11.88
35443;BME280;21561;55.654;37.592;2022-08-18T12:20:51;97975.50;;;41.26;11.69
35443;BME280;21561;55.654;37.592;2022-08-18T12:23:18;97951.72;;;39.26;12.79
35443;BME280;21561;55.654;37.592;2022-08-18T12:25:46;98002.22;;;38.31;14.20
35443;BME280;21561;55.654;37.592;2022-08-18T12:28:18;98049.22;;;38.37;14.36
35443;BME280;21561;55.654;37.592;2022-08-18T12:30:48;98077.81;;;38.82;13.95
35443;BME280;21561;55.654;37.592;2022-08-18T12:33:23;98064.25;;;37.66;14.99
35443;BME280;21561;55.654;37.592;2022-08-18T12:36:10;98087.91;;;37.70;14.81
35443;BME280;21561;55.654;37.592;2022-08-18T12:38:40;98122.47;;;38.12;14.94
35443;BME280;21561;55.654;37.592;2022-08-18T12:41:09;98107.66;;;38.14;14.99
35443;BME280;21561;55.654;37.592;2022-08-18T12:43:37;98113.75;;;38.10;14.69
35443;BME280;21561;55.654;37.592;2022-08-18T12:46:08;98130.88;;;38.04;15.36
35443;BME280;21561;55.654;37.592;2022-08-18T12:48:38;98138.63;;;37.81;15.17
35443;BME280;21561;55.654;37.592;2022-08-18T12:51:06;98138.84;;;37.55;15.56
35443;BME280;21561;55.654;37.592;2022-08-18T12:53:35;98143.78;;;37.58;15.52
35443;BME280;21561;55.654;37.592;2022-08-18T12:56:31;98166.88;;;37.86;15.73
35443;BME280;21561;55.654;37.592;2022-08-18T12:59:04;98175.03;;;37.54;15.73
35443;BME280;21561;55.654;37.592;2022-08-18T13:01:36;98180.69;;;36.82;15.91
35443;BME280;21561;55.654;37.592;2022-08-18T13:04:05;98185.94;;;36.77;15.81
35443;BME280;21561;55.654;37.592;2022-08-18T13:06:43;98204.41;;;36.80;16.43
35443;BME280;21561;55.654;37.592;2022-08-18T13:09:31;98208.41;;;37.09;15.70
35443;BME280;21561;55.654;37.592;2022-08-18T13:12:15;98191.88;;;37.31;15.94
35443;BME280;21561;55.654;37.592;2022-08-18T13:14:43;98202.78;;;37.17;16.11
35443;BME280;21561;55.654;37.592;2022-08-18T13:17:12;98223.59;;;37.10;16.43
35443;BME280;21561;55.654;37.592;2022-08-18T13:20:03;98238.81;;;36.46;17.16
35443;BME280;21561;55.654;37.592;2022-08-18T13:22:33;98273.66;;;36.74;17.60
35443;BME280;21561;55.654;37.592;2022-08-18T13:25:01;98278.56;;;36.97;16.83
35443;BME280;21561;55.654;37.592;2022-08-18T13:27:30;98275.31;;;37.59;16.54
35443;BME280;21561;55.654;37.592;2022-08-18T13:30:06;98258.72;;;36.58;16.67
35443;BME280;21561;55.654;37.592;2022-08-18T13:32:55;98272.06;;;36.00;17.43
35443;BME280;21561;55.654;37.592;2022-08-18T13:35:25;98298.47;;;36.11;17.64
35443;BME280;21561;55.654;37.592;2022-08-18T13:38:01;98326.47;;;36.50;17.56
35443;BME280;21561;55.654;37.592;2022-08-18T13:40:43;98330.22;;;36.49;17.64
35443;BME280;21561;55.654;37.592;2022-08-18T13:43:13;98327.91;;;36.73;17.78
35443;BME280;21561;55.654;37.592;2022-08-18T13:45:43;98323.31;;;36.66;17.42
35443;BME280;21561;55.654;37.592;2022-08-18T13:48:18;98335.63;;;36.69;17.51
35443;BME280;21561;55.654;37.592;2022-08-18T13:50:45;98324.78;;;36.56;17.27
35443;BME280;21561;55.654;37.592;2022-08-18T13:53:14;98336.44;;;36.43;17.63
35443;BME280;21561;55.654;37.592;2022-08-18T13:55:45;98354.72;;;36.01;18.00
35443;BME280;21561;55.654;37.592;2022-08-18T13:58:13;98373.88;;;36.19;18.19
35443;BME280;21561;55.654;37.592;2022-08-18T14:00:48;98368.06;;;36.22;17.77
35443;BME280;21561;55.654;37.592;2022-08-18T14:03:19;98369.09;;;36.35;17.92
35443;BME280;21561;55.654;37.592;2022-08-18T14:06:10;98373.44;;;36.22;18.27
35443;BME280;21561;55.654;37.592;2022-08-18T14:08:39;98359.50;;;36.19;17.84
35443;BME280;21561;55.654;37.592;2022-08-18T14:11:07;98366.97;;;35.90;17.64
35443;BME280;21561;55.654;37.592;2022-08-18T14:13:35;98377.97;;;35.88;18.16
35443;BME280;21561;55.654;37.592;2022-08-18T14:16:09;98371.34;;;36.11;17.70
35443;BME280;21561;55.654;37.592;2022-08-18T14:18:44;98377.13;;;35.94;18.00
35443;BME280;21561;55.654;37.592;2022-08-18T14:21:42;98395.47;;;36.19;17.81
35443;BME280;21561;55.654;37.592;2022-08-18T14:24:30;98412.91;;;35.48;18.73
35443;BME280;21561;55.654;37.592;2022-08-18T14:27:18;98428.25;;;35.54;19.25
35443;BME280;21561;55.654;37.592;2022-08-18T14:29:46;98431.81;;;35.62;18.97
35443;BME280;21561;55.654;37.592;2022-08-18T14:32:19;98458.69;;;35.83;18.97
35443;BME280;21561;55.654;37.592;2022-08-18T14:35:00;98449.81;;;36.03;18.23
35443;BME280;21561;55.654;37.592;2022-08-18T14:37:47;98457.97;;;35.61;18.98
35443;BME280;21561;55.654;37.592;2022-08-18T14:40:15;98459.66;;;35.69;19.07
35443;BME280;21561;55.654;37.592;2022-08-18T14:42:42;98456.31;;;35.67;18.94
35443;BME280;21561;55.654;37.592;2022-08-18T14:45:22;98469.63;;;35.27;19.30
35443;BME280;21561;55.654;37.592;2022-08-18T14:48:02;98479.97;;;34.95;19.89
35443;BME280;21561;55.654;37.592;2022-08-18T14:50:34;98499.63;;;34.24;20.10
35443;BME280;21561;55.654;37.592;2022-08-18T14:53:03;98532.59;;;34.26;20.56
35443;BME280;21561;55.654;37.592;2022-08-18T14:55:30;98551.94;;;34.36;20.91
35443;BME280;21561;55.654;37.592;2022-08-18T14:58:00;98546.50;;;34.30;20.31
35443;BME280;21561;55.654;37.592;2022-08-18T15:00:27;98553.47;;;34.46;20.32
35443;BME280;21561;55.654;37.592;2022-08-18T15:02:54;98553.63;;;34.37;20.66
35443;BME280;21561;55.654;37.592;2022-08-18T15:05:25;98563.34;;;34.60;20.46
35443;BME280;21561;55.654;37.592;2022-08-18T15:07:54;98561.63;;;34.16;20.81
35443;BME280;21561;55.654;37.592;2022-08-18T15:10:22;98551.31;;;33.83;20.19
35443;BME280;21561;55.654;37.592;2022-08-18T15:12:53;98549.16;;;33.63;20.00
35443;BME280;21561;55.654;37.592;2022-08-18T15:15:20;98558.03;;;33.11;20.43
35443;BME280;21561;55.654;37.592;2022-08-18T15:17:50;98568.84;;;32.65;20.57
35443;BME280;21561;55.654;37.592;2022-08-18T15:20:20;98584.91;;;32.42;20.87
35443;BME280;21561;55.654;37.592;2022-08-18T15:23:01;98604.31;;;32.52;21.31
35443;BME280;21561;55.654;37.592;2022-08-18T15:25:53;98622.75;;;32.24;21.83
35443;BME280;21561;55.654;37.592;2022-08-18T15:28:23;98640.09;;;32.05;21.85